createdAt,value
2019-04-20T00:01:38.762Z,6.39
2019-04-20T00:04:09.908Z,6.36
2019-04-20T00:06:43.178Z,6.34
2019-04-20T00:09:11.869Z,6.30
2019-04-20T00:11:47.101Z,6.26
2019-04-20T00:14:10.382Z,6.24
2019-04-20T00:16:31.685Z,6.21
2019-04-20T00:19:01.859Z,6.15
2019-04-20T00:21:27.214Z,6.09
2019-04-20T00:23:54.770Z,6.06
2019-04-20T00:26:34.058Z,6.02
2019-04-20T00:29:06.918Z,5.97
2019-04-20T00:31:38.023Z,5.95
2019-04-20T00:33:56.209Z,5.94
2019-04-20T00:36:16.173Z,5.91
2019-04-20T00:38:50.938Z,5.86
2019-04-20T00:41:14.291Z,5.84
2019-04-20T00:43:42.131Z,5.83
2019-04-20T00:46:19.581Z,5.82
2019-04-20T00:48:48.497Z,5.80
2019-04-20T00:51:24.970Z,5.75
2019-04-20T00:53:39.624Z,5.75
2019-04-20T00:56:03.769Z,5.73
2019-04-20T00:58:42.118Z,5.71
2019-04-20T01:01:20.669Z,5.73
2019-04-20T01:03:43.207Z,5.69
2019-04-20T01:06:19.010Z,5.71
2019-04-20T01:08:25.697Z,5.68
2019-04-20T01:10:55.708Z,5.68
2019-04-20T01:13:24.825Z,5.67
2019-04-20T01:15:55.395Z,5.64
2019-04-20T01:18:18.098Z,5.60
2019-04-20T01:20:45.266Z,5.56
2019-04-20T01:23:15.806Z,5.51
2019-04-20T01:25:43.793Z,5.51
2019-04-20T01:28:29.928Z,5.46
2019-04-20T01:30:45.792Z,5.44
2019-04-20T01:33:22.860Z,5.42
2019-04-20T01:35:48.913Z,5.36
2019-04-20T01:38:20.902Z,5.33
2019-04-20T01:40:32.028Z,5.32
2019-04-20T01:42:59.493Z,5.32
2019-04-20T01:45:31.427Z,5.30
2019-04-20T01:47:57.846Z,5.30
2019-04-20T01:50:27.669Z,5.24
2019-04-20T01:53:03.503Z,5.16
2019-04-20T01:55:43.993Z,5.13
2019-04-20T01:58:12.151Z,5.09
2019-04-20T02:00:30.732Z,5.06
2019-04-20T02:02:58.679Z,5.04
2019-04-20T02:05:29.064Z,5.08
2019-04-20T02:07:53.907Z,5.04
2019-04-20T02:10:22.890Z,4.99
2019-04-20T02:12:53.052Z,4.94
2019-04-20T02:15:24.256Z,4.96
2019-04-20T02:17:59.709Z,4.92
2019-04-20T02:20:54.490Z,4.88
2019-04-20T02:23:16.498Z,4.86
2019-04-20T02:25:31.160Z,4.89
2019-04-20T02:28:18.962Z,4.89
2019-04-20T02:33:40.043Z,4.85
2019-04-20T02:36:04.808Z,4.85
2019-04-20T02:38:38.856Z,4.87
2019-04-20T02:41:02.394Z,4.89
2019-04-20T02:43:34.777Z,4.87
2019-04-20T02:45:49.130Z,4.83
2019-04-20T02:48:13.429Z,4.81
2019-04-20T02:50:59.264Z,4.78
2019-04-20T02:55:53.507Z,4.73
2019-04-20T02:58:20.411Z,4.71
2019-04-20T03:00:35.442Z,4.70
2019-04-20T03:02:55.322Z,4.63
2019-04-20T03:05:20.430Z,4.64
2019-04-20T03:07:57.399Z,4.67
2019-04-20T03:10:34.337Z,4.61
2019-04-20T03:12:57.064Z,4.55
2019-04-20T03:15:33.764Z,4.52
2019-04-20T03:17:58.794Z,4.47
2019-04-20T03:20:29.966Z,4.47
2019-04-20T03:25:24.233Z,4.47
2019-04-20T03:27:46.130Z,4.43
2019-04-20T03:31:08.823Z,4.43
2019-04-20T03:35:22.495Z,4.28
2019-04-20T03:37:42.697Z,4.27
2019-04-20T03:40:09.902Z,4.29
2019-04-20T03:42:24.454Z,4.25
2019-04-20T03:44:58.693Z,4.23
2019-04-20T03:47:31.462Z,4.22
2019-04-20T03:50:16.754Z,4.20
2019-04-20T03:52:32.844Z,4.14
2019-04-20T03:54:54.353Z,4.12
2019-04-20T03:57:38.333Z,4.13
2019-04-20T04:00:04.866Z,4.08
2019-04-20T04:04:59.077Z,4.02
2019-04-20T04:07:19.546Z,4.03
2019-04-20T04:09:56.408Z,4.02
2019-04-20T04:13:03.077Z,3.98
2019-04-20T04:15:29.885Z,3.94
2019-04-20T04:17:58.468Z,3.85
2019-04-20T04:20:32.981Z,3.85
2019-04-20T04:23:10.349Z,3.83
2019-04-20T04:25:33.686Z,3.86
2019-04-20T04:28:09.322Z,3.85
2019-04-20T04:30:33.056Z,3.81
2019-04-20T04:33:32.217Z,3.80
2019-04-20T04:35:29.808Z,3.80
2019-04-20T04:38:02.698Z,3.79
2019-04-20T04:40:42.180Z,3.78
2019-04-20T04:43:05.700Z,3.75
2019-04-20T04:45:17.241Z,3.72
2019-04-20T04:47:42.892Z,3.75
2019-04-20T04:50:16.435Z,3.72
2019-04-20T04:52:49.237Z,3.71
2019-04-20T04:55:20.038Z,3.68
2019-04-20T04:57:36.928Z,3.68
2019-04-20T05:00:11.126Z,3.64
2019-04-20T05:02:41.252Z,3.65
2019-04-20T05:05:25.448Z,3.63
2019-04-20T05:07:47.824Z,3.59
2019-04-20T05:10:01.952Z,3.59
2019-04-20T05:12:33.122Z,3.65
2019-04-20T05:15:05.216Z,3.67
2019-04-20T05:17:45.317Z,3.68
2019-04-20T05:20:16.062Z,3.68
2019-04-20T05:22:42.848Z,3.67
2019-04-20T05:25:10.840Z,3.65
2019-04-20T05:27:40.093Z,3.64
2019-04-20T05:29:49.252Z,3.63
2019-04-20T05:32:24.719Z,3.64
2019-04-20T05:35:08.461Z,3.63
2019-04-20T05:37:59.598Z,3.63
2019-04-20T05:40:09.390Z,3.63
2019-04-20T05:42:30.218Z,3.61
2019-04-20T05:44:57.255Z,3.65
2019-04-20T05:47:26.603Z,3.66
2019-04-20T05:49:53.868Z,3.69
2019-04-20T05:54:57.314Z,3.76
2019-04-20T05:57:25.167Z,3.82
2019-04-20T05:59:56.211Z,3.91
2019-04-20T06:02:26.264Z,4.03
2019-04-20T06:05:00.203Z,4.14
2019-04-20T06:07:20.928Z,4.30
2019-04-20T06:09:46.255Z,4.44
2019-04-20T06:12:31.499Z,4.55
2019-04-20T06:14:39.424Z,4.67
2019-04-20T06:17:08.861Z,4.83
2019-04-20T06:19:57.555Z,4.94
2019-04-20T06:22:14.930Z,5.06
2019-04-20T06:24:44.838Z,5.19
2019-04-20T06:27:04.784Z,5.33
2019-04-20T06:29:31.819Z,5.46
2019-04-20T06:32:07.020Z,5.60
2019-04-20T06:34:37.729Z,5.73
2019-04-20T06:37:02.074Z,5.88
2019-04-20T06:44:32.260Z,6.28
2019-04-20T06:51:59.984Z,6.68
2019-04-20T06:54:15.916Z,6.85
2019-04-20T06:56:54.425Z,6.94
2019-04-20T06:59:27.675Z,7.05
2019-04-20T07:01:56.918Z,7.17
2019-04-20T07:04:43.110Z,7.30
2019-04-20T07:09:27.218Z,7.53
2019-04-20T07:11:47.756Z,7.62
2019-04-20T07:14:00.962Z,7.73
2019-04-20T07:16:47.870Z,7.86
2019-04-20T07:19:17.284Z,7.96
2019-04-20T07:21:57.363Z,8.09
2019-04-20T07:24:11.782Z,8.20
2019-04-20T07:26:39.982Z,8.31
2019-04-20T07:29:13.552Z,8.41
2019-04-20T07:31:29.645Z,8.49
2019-04-20T07:34:03.721Z,8.60
2019-04-20T07:36:32.328Z,8.74
2019-04-20T07:39:03.723Z,8.84
2019-04-20T07:41:33.023Z,8.96
2019-04-20T07:44:02.969Z,9.07
2019-04-20T07:46:41.098Z,9.14
2019-04-20T07:48:56.457Z,9.26
2019-04-20T07:51:13.713Z,9.35
2019-04-20T07:53:45.030Z,9.45
2019-04-20T07:56:25.902Z,9.55
2019-04-20T07:58:36.699Z,9.65
2019-04-20T08:01:22.579Z,9.75
2019-04-20T08:04:01.380Z,9.90
2019-04-20T08:06:02.428Z,10.04
2019-04-20T08:08:38.539Z,10.14
2019-04-20T08:11:07.352Z,10.23
2019-04-20T08:13:46.700Z,10.39
2019-04-20T08:16:08.758Z,10.50
2019-04-20T08:18:40.041Z,10.54
2019-04-20T08:21:06.408Z,10.64
2019-04-20T08:23:34.861Z,10.77
2019-04-20T08:25:53.241Z,10.85
2019-04-20T08:28:16.439Z,10.99
2019-04-20T08:30:57.102Z,11.12
2019-04-20T08:33:29.915Z,11.20
2019-04-20T08:36:01.229Z,11.26
2019-04-20T08:40:53.634Z,11.38
2019-04-20T08:43:37.687Z,11.48
2019-04-20T08:45:49.235Z,11.58
2019-04-20T08:48:27.469Z,11.67
2019-04-20T08:50:50.688Z,11.77
2019-04-20T08:53:20.756Z,11.89
2019-04-20T08:55:42.540Z,11.98
2019-04-20T08:57:54.344Z,12.06
2019-04-20T09:00:29.322Z,12.24
2019-04-20T09:02:57.875Z,12.26
2019-04-20T09:05:32.619Z,12.36
2019-04-20T09:07:57.184Z,12.41
2019-04-20T09:10:38.014Z,12.45
2019-04-20T09:12:57.391Z,12.48
2019-04-20T09:15:16.845Z,12.48
2019-04-20T09:17:49.458Z,12.53
2019-04-20T09:20:21.517Z,12.58
2019-04-20T09:22:50.657Z,12.61
2019-04-20T09:27:45.708Z,12.99
2019-04-20T09:30:24.299Z,13.05
2019-04-20T09:32:56.710Z,13.11
2019-04-20T09:35:27.724Z,13.08
2019-04-20T09:37:53.115Z,13.21
2019-04-20T09:40:29.331Z,13.28
2019-04-20T09:42:34.991Z,13.29
2019-04-20T09:45:04.916Z,13.33
2019-04-20T09:47:36.903Z,13.39
2019-04-20T09:50:13.445Z,13.51
2019-04-20T09:52:48.014Z,13.56
2019-04-20T09:55:10.703Z,13.64
2019-04-20T09:57:43.858Z,13.68
2019-04-20T10:00:13.336Z,13.78
2019-04-20T10:02:27.812Z,13.74
2019-04-20T10:04:51.617Z,13.79
2019-04-20T10:07:22.243Z,13.88
2019-04-20T10:09:48.372Z,13.97
2019-04-20T10:12:15.742Z,14.04
2019-04-20T10:14:42.796Z,14.17
2019-04-20T10:17:09.712Z,14.18
2019-04-20T10:19:39.129Z,14.34
2019-04-20T10:22:05.094Z,14.40
2019-04-20T10:24:32.799Z,14.48
2019-04-20T10:27:00.807Z,14.60
2019-04-20T10:29:27.929Z,14.80
2019-04-20T10:31:58.535Z,14.88
2019-04-20T10:34:24.224Z,15.00
2019-04-20T10:36:51.440Z,15.17
2019-04-20T10:39:18.514Z,15.25
2019-04-20T10:41:51.275Z,15.40
2019-04-20T10:44:14.666Z,15.57
2019-04-20T10:46:42.818Z,15.77
2019-04-20T10:49:11.090Z,15.91
2019-04-20T10:51:38.125Z,16.15
2019-04-20T10:54:04.924Z,16.35
2019-04-20T10:56:31.777Z,16.57
2019-04-20T10:58:58.509Z,16.68
2019-04-20T11:01:25.453Z,16.92
2019-04-20T11:03:52.373Z,17.13
2019-04-20T11:06:20.557Z,17.45
2019-04-20T11:08:48.649Z,17.87
2019-04-20T11:11:22.849Z,18.26
2019-04-20T11:13:44.092Z,18.70
2019-04-20T11:16:10.871Z,19.14
2019-04-20T11:18:37.729Z,19.48
2019-04-20T11:21:04.573Z,19.93
2019-04-20T11:23:32.097Z,20.25
2019-04-20T11:26:00.151Z,20.51
2019-04-20T11:28:28.193Z,20.80
2019-04-20T11:30:56.229Z,20.92
2019-04-20T11:33:24.449Z,21.01
2019-04-20T11:35:51.589Z,21.19
2019-04-20T11:38:19.629Z,21.30
2019-04-20T11:40:48.171Z,21.34
2019-04-20T11:43:15.625Z,21.44
2019-04-20T11:45:42.735Z,21.52
2019-04-20T11:48:09.758Z,21.63
2019-04-20T11:50:37.707Z,21.66
2019-04-20T11:53:05.586Z,21.71
2019-04-20T11:55:34.012Z,21.91
2019-04-20T11:58:01.709Z,21.94
2019-04-20T12:00:52.080Z,22.01
2019-04-20T12:03:21.349Z,22.04
2019-04-20T12:05:44.550Z,21.95
2019-04-20T12:08:09.106Z,21.91
2019-04-20T12:10:37.175Z,21.94
2019-04-20T12:13:03.985Z,21.94
2019-04-20T12:15:33.667Z,21.96
2019-04-20T12:17:59.871Z,21.98
2019-04-20T12:20:26.952Z,22.06
2019-04-20T12:22:54.637Z,22.15
2019-04-20T12:25:21.538Z,22.31
2019-04-20T12:27:52.574Z,22.46
2019-04-20T12:30:17.583Z,22.51
2019-04-20T12:32:50.477Z,22.52
2019-04-20T12:35:14.116Z,22.63
2019-04-20T12:37:41.250Z,22.68
2019-04-20T12:40:12.133Z,22.76
2019-04-20T12:42:39.252Z,22.83
2019-04-20T12:45:09.610Z,22.89
2019-04-20T12:47:37.481Z,22.94
2019-04-20T12:50:07.669Z,22.92
2019-04-20T12:52:34.693Z,22.90
2019-04-20T12:55:04.356Z,22.93
2019-04-20T12:57:30.239Z,22.88
2019-04-20T12:59:57.288Z,22.93
2019-04-20T13:02:25.151Z,23.05
2019-04-20T13:04:53.297Z,23.13
2019-04-20T13:07:21.040Z,23.25
2019-04-20T13:09:50.852Z,23.26
2019-04-20T13:12:19.475Z,23.25
2019-04-20T13:15:06.540Z,23.32
2019-04-20T13:17:34.452Z,23.36
2019-04-20T13:20:01.738Z,23.41
2019-04-20T13:22:28.742Z,23.44
2019-04-20T13:24:56.935Z,23.56
2019-04-20T13:27:25.056Z,23.59
2019-04-20T13:29:52.977Z,23.67
2019-04-20T13:32:20.449Z,23.66
2019-04-20T13:34:47.316Z,23.88
2019-04-20T13:37:14.202Z,23.92
2019-04-20T13:39:40.938Z,23.90
2019-04-20T13:42:16.063Z,23.89
2019-04-20T13:44:38.734Z,23.92
2019-04-20T13:47:07.258Z,23.89
2019-04-20T13:49:34.175Z,23.85
2019-04-20T13:52:00.957Z,23.88
2019-04-20T13:54:28.583Z,24.05
2019-04-20T13:56:56.618Z,24.06
2019-04-20T13:59:24.568Z,24.21
2019-04-20T14:01:52.822Z,24.37
2019-04-20T14:04:20.970Z,24.40
2019-04-20T14:06:49.492Z,24.52
2019-04-20T14:09:17.184Z,24.51
2019-04-20T14:11:45.289Z,24.59
2019-04-20T14:14:13.085Z,24.66
2019-04-20T14:16:41.217Z,24.56
2019-04-20T14:19:09.303Z,24.56
2019-04-20T14:21:36.475Z,24.39
2019-04-20T14:24:04.350Z,24.37
2019-04-20T14:26:32.649Z,24.59
2019-04-20T14:29:00.879Z,24.75
2019-04-20T14:31:27.960Z,24.83
2019-04-20T14:33:57.123Z,24.98
2019-04-20T14:36:24.382Z,25.15
2019-04-20T14:38:51.976Z,25.21
2019-04-20T14:41:20.584Z,25.13
2019-04-20T14:43:48.886Z,25.08
2019-04-20T14:46:16.826Z,24.98
2019-04-20T14:48:44.878Z,24.97
2019-04-20T14:51:11.892Z,25.00
2019-04-20T14:53:38.713Z,25.01
2019-04-20T14:56:05.447Z,24.91
2019-04-20T14:58:33.722Z,25.02
2019-04-20T15:01:00.873Z,24.99
2019-04-20T15:03:28.308Z,24.87
2019-04-20T15:06:00.000Z,24.81
2019-04-20T15:08:27.018Z,24.68
2019-04-20T15:10:54.573Z,24.73
2019-04-20T15:13:22.556Z,24.79
2019-04-20T15:15:50.629Z,24.83
2019-04-20T15:18:17.735Z,24.91
2019-04-20T15:20:45.697Z,25.05
2019-04-20T15:23:12.470Z,25.19
2019-04-20T15:25:40.237Z,25.14
2019-04-20T15:28:08.246Z,25.17
2019-04-20T15:30:36.111Z,25.00
2019-04-20T15:33:03.221Z,24.75
2019-04-20T15:35:30.230Z,24.65
2019-04-20T15:37:57.319Z,24.42
2019-04-20T15:40:27.016Z,23.96
2019-04-20T15:43:01.087Z,23.73
2019-04-20T15:45:23.495Z,23.60
2019-04-20T15:47:50.339Z,23.45
2019-04-20T15:50:18.086Z,23.37
2019-04-20T15:52:50.504Z,23.23
2019-04-20T15:55:22.646Z,23.22
2019-04-20T15:57:42.774Z,23.02
2019-04-20T16:00:10.923Z,22.77
2019-04-20T16:02:39.034Z,22.59
2019-04-20T16:05:06.465Z,22.30
2019-04-20T16:07:39.179Z,22.12
2019-04-20T16:10:07.451Z,22.17
2019-04-20T16:12:35.091Z,22.08
2019-04-20T16:15:03.938Z,22.03
2019-04-20T16:17:36.862Z,21.90
2019-04-20T16:20:06.411Z,21.80
2019-04-20T16:22:28.920Z,21.63
2019-04-20T16:24:59.177Z,21.50
2019-04-20T16:27:27.553Z,21.29
2019-04-20T16:29:55.783Z,21.11
2019-04-20T16:32:42.722Z,20.84
2019-04-20T16:35:10.884Z,20.62
2019-04-20T16:37:38.371Z,20.35
2019-04-20T16:40:07.715Z,20.12
2019-04-20T16:42:38.493Z,19.95
2019-04-20T16:45:07.254Z,19.77
2019-04-20T16:47:34.371Z,19.58
2019-04-20T16:50:01.295Z,19.38
2019-04-20T16:52:28.834Z,19.19
2019-04-20T16:54:55.709Z,19.04
2019-04-20T16:57:23.679Z,18.85
2019-04-20T16:59:53.009Z,18.67
2019-04-20T17:02:19.887Z,18.43
2019-04-20T17:04:50.317Z,18.16
2019-04-20T17:07:16.687Z,17.80
2019-04-20T17:09:43.932Z,17.61
2019-04-20T17:12:11.975Z,17.43
2019-04-20T17:14:39.919Z,17.19
2019-04-20T17:17:07.423Z,17.06
2019-04-20T17:19:35.522Z,16.90
2019-04-20T17:22:03.617Z,16.74
2019-04-20T17:24:31.355Z,16.60
2019-04-20T17:26:59.088Z,16.48
2019-04-20T17:29:26.281Z,16.39
2019-04-20T17:31:53.554Z,16.30
2019-04-20T17:34:36.333Z,16.09
2019-04-20T17:36:50.491Z,15.96
2019-04-20T17:39:27.810Z,15.71
2019-04-20T17:42:03.441Z,15.63
2019-04-20T17:44:31.497Z,15.48
2019-04-20T17:46:56.877Z,15.39
2019-04-20T17:49:28.109Z,15.28
2019-04-20T17:52:05.089Z,15.21
2019-04-20T17:54:10.560Z,15.11
2019-04-20T17:56:38.391Z,15.03
2019-04-20T17:59:06.154Z,14.89
2019-04-20T18:01:49.977Z,14.78
2019-04-20T18:04:37.003Z,14.66
2019-04-20T18:06:43.689Z,14.52
2019-04-20T18:09:13.286Z,14.39
2019-04-20T18:11:36.248Z,14.25
2019-04-20T18:14:04.273Z,14.16
2019-04-20T18:16:46.858Z,14.11
2019-04-20T18:19:03.256Z,14.02
2019-04-20T18:21:24.415Z,13.94
2019-04-20T18:23:51.889Z,13.81
2019-04-20T18:26:37.855Z,13.70
2019-04-20T18:29:21.363Z,13.62
2019-04-20T18:31:15.847Z,13.50
2019-04-20T18:33:42.602Z,13.39
2019-04-20T18:36:13.363Z,13.28
2019-04-20T18:38:49.084Z,13.19
2019-04-20T18:41:08.895Z,13.10
2019-04-20T18:43:42.711Z,13.09
2019-04-20T18:46:23.778Z,13.02
2019-04-20T18:48:57.104Z,12.97
2019-04-20T18:51:02.043Z,12.86
2019-04-20T18:53:35.964Z,12.74
2019-04-20T18:56:00.565Z,12.64
2019-04-20T18:58:27.016Z,12.53
2019-04-20T19:01:14.998Z,12.47
2019-04-20T19:03:44.003Z,12.38
2019-04-20T19:06:12.090Z,12.28
2019-04-20T19:08:44.659Z,12.22
2019-04-20T19:11:11.453Z,12.14
2019-04-20T19:13:38.741Z,12.10
2019-04-20T19:16:16.680Z,12.06
2019-04-20T19:18:50.735Z,11.99
2019-04-20T19:21:03.419Z,11.94
2019-04-20T19:23:33.799Z,11.86
2019-04-20T19:26:04.452Z,11.82
2019-04-20T19:28:35.212Z,11.73
2019-04-20T19:31:12.579Z,11.69
2019-04-20T19:33:37.613Z,11.63
2019-04-20T19:36:09.223Z,11.60
2019-04-20T19:38:29.494Z,11.52
2019-04-20T19:40:59.428Z,11.42
2019-04-20T19:43:26.648Z,11.36
2019-04-20T19:46:30.991Z,11.28
2019-04-20T19:48:27.893Z,11.17
2019-04-20T19:51:24.899Z,11.10
2019-04-20T19:53:38.122Z,11.04
2019-04-20T19:55:56.322Z,11.01
2019-04-20T19:58:26.405Z,11.00
2019-04-20T20:00:53.600Z,10.93
2019-04-20T20:03:19.963Z,10.86
2019-04-20T20:05:49.890Z,10.78
2019-04-20T20:08:20.996Z,10.67
2019-04-20T20:10:45.722Z,10.65
2019-04-20T20:13:13.182Z,10.58
2019-04-20T20:15:41.792Z,10.51
2019-04-20T20:18:27.872Z,10.45
2019-04-20T20:20:55.360Z,10.41
2019-04-20T20:23:05.833Z,10.39
2019-04-20T20:25:37.346Z,10.34
2019-04-20T20:28:14.520Z,10.29
2019-04-20T20:30:35.349Z,10.20
2019-04-20T20:33:16.074Z,10.19
2019-04-20T20:35:30.780Z,10.12
2019-04-20T20:37:59.464Z,10.12
2019-04-20T20:40:29.844Z,10.10
2019-04-20T20:43:04.803Z,10.06
2019-04-20T20:45:32.785Z,9.95
2019-04-20T20:48:12.067Z,9.89
2019-04-20T20:50:36.381Z,9.85
2019-04-20T20:53:00.983Z,9.80
2019-04-20T20:55:25.818Z,9.71
2019-04-20T20:57:55.727Z,9.65
2019-04-20T21:00:34.439Z,9.63
2019-04-20T21:02:50.331Z,9.57
2019-04-20T21:05:11.588Z,9.52
2019-04-20T21:07:38.678Z,9.44
2019-04-20T21:10:08.323Z,9.44
2019-04-20T21:12:37.333Z,9.42
2019-04-20T21:15:12.267Z,9.32
2019-04-20T21:17:47.646Z,9.27
2019-04-20T21:20:20.419Z,9.18
2019-04-20T21:22:57.513Z,9.17
2019-04-20T21:25:07.273Z,9.13
2019-04-20T21:27:34.989Z,9.06
2019-04-20T21:30:03.581Z,9.01
2019-04-20T21:32:33.019Z,8.96
2019-04-20T21:35:03.503Z,8.93
2019-04-20T21:37:28.942Z,8.91
2019-04-20T21:39:59.685Z,8.88
2019-04-20T21:42:26.762Z,8.86
2019-04-20T21:45:05.860Z,8.84
2019-04-20T21:47:28.003Z,8.81
2019-04-20T21:50:03.129Z,8.80
2019-04-20T21:52:27.225Z,8.81
2019-04-20T21:54:47.906Z,8.76
2019-04-20T21:57:16.434Z,8.75
2019-04-20T21:59:48.496Z,8.73
2019-04-20T22:02:19.456Z,8.70
2019-04-20T22:04:40.699Z,8.71
2019-04-20T22:07:08.048Z,8.69
2019-04-20T22:09:42.272Z,8.68
2019-04-20T22:12:05.772Z,8.67
2019-04-20T22:14:33.986Z,8.66
2019-04-20T22:17:03.659Z,8.68
2019-04-20T22:19:41.042Z,8.76
2019-04-20T22:22:05.486Z,8.80
2019-04-20T22:24:42.212Z,8.85
2019-04-20T22:27:07.787Z,8.89
2019-04-20T22:29:24.007Z,8.93
2019-04-20T22:31:53.481Z,8.91
2019-04-20T22:34:23.825Z,8.85
2019-04-20T22:36:50.071Z,8.82
2019-04-20T22:39:16.446Z,8.75
2019-04-20T22:41:45.790Z,8.72
2019-04-20T22:44:15.166Z,8.60
2019-04-20T22:46:42.253Z,8.53
2019-04-20T22:49:28.190Z,8.46
2019-04-20T22:51:50.516Z,8.40
2019-04-20T22:54:21.925Z,8.40
2019-04-20T22:56:47.035Z,8.35
2019-04-20T22:59:12.584Z,8.35
2019-04-20T23:01:40.436Z,8.31
2019-04-20T23:04:01.509Z,8.24
2019-04-20T23:06:33.377Z,8.14
2019-04-20T23:09:01.073Z,8.06
2019-04-20T23:11:29.076Z,8.02
2019-04-20T23:13:54.024Z,7.97
2019-04-20T23:16:21.025Z,7.92
2019-04-20T23:18:47.886Z,7.88
2019-04-20T23:21:17.388Z,7.83
2019-04-20T23:23:43.703Z,7.82
2019-04-20T23:26:11.423Z,7.80
2019-04-20T23:28:47.763Z,7.81
2019-04-20T23:31:15.197Z,7.78
2019-04-20T23:33:36.395Z,7.76
2019-04-20T23:36:04.693Z,7.71
2019-04-20T23:38:32.724Z,7.68
2019-04-20T23:40:59.672Z,7.68
2019-04-20T23:43:29.893Z,7.69
2019-04-20T23:45:54.980Z,7.70
2019-04-20T23:48:23.685Z,7.66
2019-04-20T23:51:05.821Z,7.64
2019-04-20T23:53:35.129Z,7.59
2019-04-20T23:55:47.885Z,7.53
2019-04-20T23:58:16.438Z,7.48
